Vernal Airport

About
Name: Vernal Airport
Identifier:  VEL/KVEL
Serves:  Vernal, Utah
Owner:  Uintah County & Vernal City
Public/Private:  Public
Local Time:  15. Sep 08:14 MDT
Description: Vernal Regional Airport is a mile southeast of Vernal, in Uintah County, Utah. It is owned by the city and county and sees one airline, subsidized by the Essential Air Service program.
Source: Wikipedia
Location
Runways
Identifier Length (m/ft) Surface
17/35 7,000/7,000 Asphalt
Statistics
Flights per Day:
3 flights
Distance: 416km (258mi)
Flights delayed:
77% (0 flights per day delayed)
Delay Average: 19 minutes
Current Weather
 12 C (Humidity: 50%)
  3kt (5km/h / 3mph) from 280°
  16km (10 mi.)
 
 METAR KVEL 151353Z AUTO 28003KT 10SM CLR 12/02 A3020 RMK AO2 SLP183 T01170017

Current Flights

Departures
Number Departure To Airline
On time UA5078 18:14  Denver  United Airlines
Arrivals
Number Arrival From Airline
On time UA5077 17:44  Denver  United Airlines

Current Delays

Departures
N/A
Arrivals
N/A

Destinations

Top Destinations
Airport Flights
per week
Seats
per week
  Denver (DEN) 23 1,166 3 166

Airlines & Planes

Top Airlines
Airline Flights
per Day
Seats
per Day
  SkyWest Airlines 3 165
  Britt Airways 0 1
Top Plane Types
Model Flights Seats
Bombardier CRJ200 3.3/day 163/day 163.33333333333334
Bombardier Challenger 600 0.1/day 3/day 3.3333333333333335